Time;durP1;ratioP1;P1;durP2;ratioP2;P2;SDS_P1;SDS_P2;PMS_P1;PMS_P2;Temp;Humidity;BMP_temperature;BMP_pressure;BME280_temperature;BME280_humidity;BME280_pressure;Samples;Min_cycle;Max_cycle;Signal;HPM_P1;HPM_P2
2021/06/20 00:00:29;;;;;;;12.82;7.95;;;25.70;54.60;;;;;;5073692;28;20388;-78
2021/06/20 00:02:56;;;;;;;11.10;7.60;;;25.60;55.30;;;;;;5073029;28;20043;-79
2021/06/20 00:05:28;;;;;;;18.58;7.28;;;25.60;55.60;;;;;;5073324;28;20024;-79
2021/06/20 00:08:03;;;;;;;12.70;7.20;;;25.60;55.60;;;;;;5073056;28;20025;-79
2021/06/20 00:10:29;;;;;;;14.32;7.32;;;25.40;55.90;;;;;;5073228;28;20490;-79
2021/06/20 00:12:57;;;;;;;11.98;7.30;;;25.30;56.60;;;;;;5073084;28;20024;-79
2021/06/20 00:15:24;;;;;;;16.80;8.13;;;25.20;57.30;;;;;;5073189;28;20563;-80
2021/06/20 00:17:49;;;;;;;17.27;7.75;;;25.10;57.60;;;;;;5072917;28;20481;-79
2021/06/20 00:20:17;;;;;;;12.20;7.88;;;25.00;58.10;;;;;;5073950;28;20021;-80
2021/06/20 00:22:43;;;;;;;11.77;7.20;;;24.90;58.60;;;;;;5074302;28;20114;-82
2021/06/20 00:25:09;;;;;;;16.85;7.75;;;24.80;58.90;;;;;;5072437;28;20120;-79
2021/06/20 00:27:35;;;;;;;16.13;7.47;;;24.80;58.90;;;;;;5072981;28;20021;-78
2021/06/20 00:30:01;;;;;;;14.65;7.25;;;24.90;58.70;;;;;;5073082;28;20037;-78
2021/06/20 00:32:27;;;;;;;9.30;7.05;;;24.90;58.60;;;;;;5072906;28;20111;-78
2021/06/20 00:34:53;;;;;;;9.80;6.82;;;25.00;58.60;;;;;;5072496;28;20416;-78
2021/06/20 00:37:19;;;;;;;12.02;7.22;;;25.00;58.30;;;;;;5073005;28;20016;-78
2021/06/20 00:39:44;;;;;;;12.50;6.95;;;25.10;58.10;;;;;;5072744;28;20063;-79
2021/06/20 00:42:10;;;;;;;15.90;7.40;;;25.20;57.80;;;;;;5071634;28;20438;-78
2021/06/20 00:44:50;;;;;;;12.93;7.10;;;25.30;57.40;;;;;;5072665;28;20016;-78
2021/06/20 00:47:17;;;;;;;11.05;6.95;;;25.40;57.00;;;;;;5072419;28;20052;-79
2021/06/20 00:49:43;;;;;;;9.00;6.82;;;25.50;56.80;;;;;;5072383;28;20059;-81
2021/06/20 00:52:09;;;;;;;15.05;7.45;;;25.40;57.00;;;;;;5072552;28;20465;-79
2021/06/20 00:54:34;;;;;;;8.10;6.78;;;25.50;56.90;;;;;;5072423;28;20174;-79
2021/06/20 00:57:01;;;;;;;12.73;7.75;;;25.50;56.90;;;;;;5071118;28;20035;-79
2021/06/20 00:59:28;;;;;;;8.88;6.63;;;25.40;57.20;;;;;;5072404;28;20060;-79
2021/06/20 01:01:53;;;;;;;11.98;7.50;;;25.40;57.30;;;;;;5072646;28;20023;-79
2021/06/20 01:04:19;;;;;;;14.38;8.18;;;25.30;57.60;;;;;;5072466;28;20111;-79
2021/06/20 01:06:44;;;;;;;10.20;7.00;;;25.30;57.70;;;;;;5072517;28;20021;-80
2021/06/20 01:09:10;;;;;;;10.05;6.97;;;25.30;57.80;;;;;;5072388;28;20128;-81
2021/06/20 01:11:36;;;;;;;10.88;6.95;;;25.30;58.00;;;;;;5072306;28;20021;-80
2021/06/20 01:14:02;;;;;;;12.57;7.40;;;25.30;57.70;;;;;;5071978;28;20024;-80
2021/06/20 01:16:28;;;;;;;8.52;6.85;;;25.40;57.50;;;;;;5070798;28;20017;-79
2021/06/20 01:18:55;;;;;;;11.80;7.55;;;25.50;57.40;;;;;;5072298;28;20431;-80
2021/06/20 01:21:21;;;;;;;8.10;6.50;;;25.50;57.50;;;;;;5071278;28;20532;-80
2021/06/20 01:23:47;;;;;;;20.52;8.68;;;25.40;57.70;;;;;;5070856;28;20028;-79
2021/06/20 01:26:13;;;;;;;30.10;9.48;;;25.20;56.90;;;;;;5072269;28;20097;-80
2021/06/20 01:28:50;;;;;;;35.75;10.20;;;25.00;56.90;;;;;;5072235;28;20060;-80
2021/06/20 01:31:16;;;;;;;38.53;9.30;;;24.90;57.10;;;;;;5072684;28;20064;-81
2021/06/20 01:33:43;;;;;;;42.67;10.55;;;24.90;57.00;;;;;;5072281;28;20025;-80
2021/06/20 01:36:10;;;;;;;45.10;9.18;;;24.90;56.90;;;;;;5072109;28;20104;-79
2021/06/20 01:38:35;;;;;;;42.80;9.88;;;24.80;57.00;;;;;;5072220;28;20021;-82
2021/06/20 01:41:01;;;;;;;39.53;9.50;;;24.70;57.30;;;;;;5071197;28;20029;-82
2021/06/20 01:43:27;;;;;;;48.53;10.02;;;24.70;57.50;;;;;;5070738;28;20031;-82
2021/06/20 01:45:52;;;;;;;38.70;9.93;;;24.70;57.70;;;;;;5070854;28;20051;-82
2021/06/20 01:48:18;;;;;;;44.00;9.95;;;24.60;57.50;;;;;;5071847;28;20098;-81
2021/06/20 01:50:43;;;;;;;37.03;8.98;;;24.60;57.70;;;;;;5072227;28;20059;-81
2021/06/20 01:53:13;;;;;;;42.35;9.18;;;24.50;58.00;;;;;;5071971;28;20385;-81
2021/06/20 01:55:41;;;;;;;47.20;9.70;;;24.50;57.90;;;;;;5070623;28;20396;-81
2021/06/20 01:58:08;;;;;;;48.75;10.05;;;24.50;58.00;;;;;;5071935;28;20025;-82
2021/06/20 02:00:39;;;;;;;39.47;9.18;;;24.50;57.60;;;;;;5070937;28;20029;-78
2021/06/20 02:03:23;;;;;;;38.58;9.18;;;24.40;56.90;;;;;;5071956;28;20032;-79
2021/06/20 02:05:49;;;;;;;40.65;8.98;;;24.40;57.00;;;;;;5071888;28;20017;-79
2021/06/20 02:08:18;;;;;;;40.30;9.18;;;24.40;57.00;;;;;;5071885;28;20029;-81
2021/06/20 02:10:48;;;;;;;43.20;9.65;;;24.30;57.30;;;;;;5070499;28;20020;-81
2021/06/20 02:13:14;;;;;;;46.85;8.82;;;24.40;56.80;;;;;;5071942;28;20069;-83
2021/06/20 02:15:40;;;;;;;38.70;8.48;;;24.40;56.10;;;;;;5070756;28;20028;-82
2021/06/20 02:18:06;;;;;;;32.78;8.38;;;24.30;56.40;;;;;;5070509;28;20108;-82
2021/06/20 02:20:32;;;;;;;37.92;8.43;;;24.30;56.30;;;;;;5071879;28;20035;-82
2021/06/20 02:22:58;;;;;;;42.15;7.72;;;24.30;55.70;;;;;;5070308;28;20025;-81
2021/06/20 02:25:24;;;;;;;32.85;7.22;;;24.30;55.10;;;;;;5071795;28;20502;-82
2021/06/20 02:27:53;;;;;;;23.10;7.47;;;24.30;54.90;;;;;;5072738;28;20024;-81
2021/06/20 02:30:20;;;;;;;32.00;7.85;;;24.30;55.10;;;;;;5075620;28;20468;-83
2021/06/20 02:32:46;;;;;;;35.20;7.53;;;24.20;55.30;;;;;;5075240;28;20017;-86
2021/06/20 02:35:13;;;;;;;27.95;6.70;;;24.20;55.20;;;;;;5075218;28;20027;-83
2021/06/20 02:37:40;;;;;;;28.75;6.85;;;24.20;55.50;;;;;;5073732;28;20037;-82
2021/06/20 02:40:07;;;;;;;34.13;7.43;;;24.20;55.00;;;;;;5075118;28;20108;-86
2021/06/20 02:42:34;;;;;;;33.92;6.80;;;24.30;54.50;;;;;;5075257;28;20031;-82
2021/06/20 02:44:59;;;;;;;29.33;6.28;;;24.20;54.20;;;;;;5074266;28;20048;-82
2021/06/20 02:47:25;;;;;;;32.72;6.25;;;24.30;54.50;;;;;;5073990;28;20454;-82
2021/06/20 02:49:51;;;;;;;30.45;6.43;;;24.30;54.30;;;;;;5076375;28;20039;-85
2021/06/20 02:52:18;;;;;;;30.80;5.68;;;24.30;54.30;;;;;;5074497;28;20032;-81
2021/06/20 02:54:51;;;;;;;34.40;6.50;;;24.30;54.40;;;;;;5074846;28;20029;-86
2021/06/20 02:57:25;;;;;;;28.25;6.70;;;24.40;54.00;;;;;;5079332;28;20016;-88
2021/06/20 02:59:56;;;;;;;32.63;6.38;;;24.30;54.00;;;;;;5080933;28;20111;-90
2021/06/20 03:02:23;;;;;;;28.52;5.80;;;24.30;54.20;;;;;;5077934;28;20025;-87
2021/06/20 03:04:54;;;;;;;22.60;5.72;;;24.20;54.50;;;;;;5075733;28;20052;-82
2021/06/20 03:07:20;;;;;;;20.73;5.78;;;24.20;54.50;;;;;;5075221;28;20029;-87
2021/06/20 03:09:46;;;;;;;22.95;5.22;;;24.20;54.30;;;;;;5078553;28;20032;-86
2021/06/20 03:12:13;;;;;;;29.75;5.65;;;24.30;54.20;;;;;;5099279;28;20039;-87
2021/06/20 03:14:40;;;;;;;26.48;6.20;;;24.30;54.10;;;;;;5082866;28;20031;-90
2021/06/20 03:17:07;;;;;;;24.35;4.97;;;24.20;54.10;;;;;;5079049;28;20528;-89
2021/06/20 03:19:34;;;;;;;23.75;5.20;;;24.10;53.90;;;;;;5076180;28;20040;-88
2021/06/20 03:22:01;;;;;;;25.73;5.22;;;24.10;53.80;;;;;;5075673;28;20021;-88
2021/06/20 03:24:31;;;;;;;26.10;4.68;;;23.90;53.80;;;;;;5075087;28;20108;-86
2021/06/20 03:26:57;;;;;;;35.58;5.70;;;23.80;54.20;;;;;;5074595;28;20016;-87
2021/06/20 03:29:23;;;;;;;25.30;4.30;;;23.80;54.40;;;;;;5073532;28;20050;-86
2021/06/20 03:31:50;;;;;;;27.65;5.43;;;23.70;53.80;;;;;;5073570;28;20044;-88
2021/06/20 03:34:15;;;;;;;17.55;4.60;;;23.70;54.10;;;;;;5074365;28;20024;-85
2021/06/20 03:36:41;;;;;;;27.85;4.97;;;23.60;53.90;;;;;;5074492;28;20028;-84
2021/06/20 03:39:07;;;;;;;27.15;5.35;;;23.60;54.20;;;;;;5072711;28;20020;-85
2021/06/20 03:41:38;;;;;;;23.52;4.38;;;23.60;53.80;;;;;;5073389;28;20024;-86
2021/06/20 03:44:07;;;;;;;21.38;4.18;;;23.50;53.90;;;;;;5075191;28;20032;-86
2021/06/20 03:46:36;;;;;;;22.70;5.18;;;23.50;54.10;;;;;;5078986;28;20522;-86
2021/06/20 03:49:03;;;;;;;20.23;4.88;;;23.50;53.90;;;;;;5079931;28;20495;-81
2021/06/20 03:51:30;;;;;;;14.32;3.88;;;23.50;54.40;;;;;;5075374;28;20056;-82
2021/06/20 03:53:55;;;;;;;19.50;4.78;;;23.60;54.30;;;;;;5095882;28;20028;-81
2021/06/20 03:56:21;;;;;;;20.45;4.20;;;23.70;54.30;;;;;;5098063;28;20016;-81
2021/06/20 03:58:46;;;;;;;16.67;3.72;;;23.80;53.90;;;;;;5081069;28;20032;-82
2021/06/20 04:01:12;;;;;;;19.65;3.83;;;23.80;53.70;;;;;;5073590;28;20048;-82
2021/06/20 04:03:38;;;;;;;25.85;4.13;;;24.00;53.60;;;;;;5073428;28;20097;-82
2021/06/20 04:06:04;;;;;;;17.55;3.92;;;24.10;53.10;;;;;;5073322;28;20092;-82
2021/06/20 04:08:29;;;;;;;14.85;3.88;;;24.10;51.70;;;;;;5073349;28;20033;-82
2021/06/20 04:10:55;;;;;;;18.08;4.07;;;24.00;51.30;;;;;;5071945;28;20024;-82
2021/06/20 04:13:21;;;;;;;14.30;2.90;;;23.80;51.00;;;;;;5073308;28;20513;-82
2021/06/20 04:15:46;;;;;;;16.23;2.95;;;23.80;50.30;;;;;;5073120;28;20151;-81
2021/06/20 04:18:12;;;;;;;13.48;2.80;;;23.50;50.80;;;;;;5073430;28;20016;-81
2021/06/20 04:20:38;;;;;;;18.45;3.42;;;23.60;51.10;;;;;;5073203;28;20381;-81
2021/06/20 04:23:04;;;;;;;14.32;3.15;;;23.60;50.10;;;;;;5072936;28;20028;-82
2021/06/20 04:25:30;;;;;;;14.25;3.35;;;23.50;50.00;;;;;;5071487;28;20024;-82
2021/06/20 04:27:55;;;;;;;17.52;3.92;;;23.60;50.70;;;;;;5071543;28;20473;-81
2021/06/20 04:30:22;;;;;;;11.48;2.53;;;23.70;49.80;;;;;;5073038;28;20385;-82
2021/06/20 04:32:49;;;;;;;11.30;3.15;;;23.70;50.00;;;;;;5072835;28;20031;-82
2021/06/20 04:35:16;;;;;;;9.07;2.63;;;23.70;49.90;;;;;;5071427;28;20439;-82
2021/06/20 04:37:42;;;;;;;10.63;2.47;;;23.90;50.00;;;;;;5072808;28;20375;-82
2021/06/20 04:40:11;;;;;;;13.95;2.70;;;24.00;49.40;;;;;;5071390;28;20390;-83
2021/06/20 04:42:38;;;;;;;16.23;3.50;;;24.10;49.10;;;;;;5071670;28;20385;-83
2021/06/20 04:45:05;;;;;;;10.45;2.83;;;24.10;49.00;;;;;;5071530;28;20055;-82
2021/06/20 04:47:31;;;;;;;10.23;2.75;;;24.20;48.90;;;;;;5071254;28;20045;-82
2021/06/20 04:49:58;;;;;;;15.07;3.40;;;24.30;47.30;;;;;;5070499;28;20127;-82
2021/06/20 04:52:24;;;;;;;10.55;2.63;;;24.30;47.50;;;;;;5072626;28;20024;-82
2021/06/20 04:54:50;;;;;;;11.75;2.17;;;24.40;47.50;;;;;;5071125;28;20035;-82
2021/06/20 04:57:20;;;;;;;12.00;3.13;;;24.50;48.10;;;;;;5072582;28;20023;-82
2021/06/20 04:59:47;;;;;;;12.70;2.75;;;24.60;48.20;;;;;;5071493;28;20461;-83
2021/06/20 05:02:14;;;;;;;10.45;2.08;;;24.70;48.70;;;;;;5071292;28;20413;-83
2021/06/20 05:04:40;;;;;;;15.90;3.15;;;24.70;46.70;;;;;;5071168;28;20074;-83
2021/06/20 05:07:07;;;;;;;6.45;1.83;;;24.50;46.20;;;;;;5072397;28;20030;-82
2021/06/20 05:09:32;;;;;;;15.35;2.72;;;24.50;46.20;;;;;;5071159;28;20408;-82
2021/06/20 05:11:58;;;;;;;11.52;2.20;;;24.40;46.00;;;;;;5071266;28;20053;-83
2021/06/20 05:14:24;;;;;;;8.90;2.03;;;24.50;46.30;;;;;;5071284;28;20116;-83
2021/06/20 05:16:50;;;;;;;7.07;1.90;;;24.40;45.30;;;;;;5071094;28;20028;-85
2021/06/20 05:19:15;;;;;;;6.75;1.60;;;24.50;45.30;;;;;;5071171;28;20025;-85
2021/06/20 05:21:42;;;;;;;7.97;1.88;;;24.60;45.00;;;;;;5072204;28;20023;-82
2021/06/20 05:24:08;;;;;;;4.18;1.50;;;24.30;44.10;;;;;;5071019;28;20025;-83
2021/06/20 05:26:33;;;;;;;7.20;1.45;;;24.10;44.20;;;;;;5071253;28;20521;-82
2021/06/20 05:28:59;;;;;;;11.25;1.65;;;24.10;45.20;;;;;;5078059;28;20029;-82
2021/06/20 05:31:25;;;;;;;8.18;1.40;;;24.00;45.10;;;;;;5076656;28;20025;-82
2021/06/20 05:33:50;;;;;;;8.27;1.48;;;24.00;44.60;;;;;;5086903;28;20027;-85
2021/06/20 05:36:16;;;;;;;8.98;1.50;;;24.00;44.90;;;;;;5092084;28;20024;-85
2021/06/20 05:38:41;;;;;;;7.85;1.48;;;23.90;45.00;;;;;;5091727;28;20024;-85
2021/06/20 05:41:07;;;;;;;4.75;1.40;;;23.90;44.60;;;;;;5092547;28;20027;-84
2021/06/20 05:43:33;;;;;;;5.43;1.15;;;23.90;44.80;;;;;;5092280;28;20384;-85
2021/06/20 05:45:58;;;;;;;4.50;1.20;;;23.90;44.30;;;;;;5094823;28;20028;-83
2021/06/20 05:48:24;;;;;;;5.95;1.60;;;23.90;44.40;;;;;;5094419;28;20051;-83
2021/06/20 05:50:49;;;;;;;6.75;1.45;;;24.10;44.70;;;;;;5109829;28;20053;-83
2021/06/20 05:53:15;;;;;;;6.38;1.55;;;24.30;43.90;;;;;;5107773;28;20020;-83
2021/06/20 05:55:41;;;;;;;6.68;1.38;;;24.30;43.50;;;;;;5108339;28;20057;-83
2021/06/20 05:58:06;;;;;;;6.38;1.15;;;24.30;43.60;;;;;;5101712;28;20044;-83
2021/06/20 06:00:32;;;;;;;4.72;0.88;;;24.40;43.90;;;;;;5103194;28;20103;-82
2021/06/20 06:02:59;;;;;;;3.65;1.20;;;24.60;43.00;;;;;;5104715;28;20499;-83
2021/06/20 06:05:25;;;;;;;9.60;1.63;;;24.70;42.80;;;;;;5096366;28;20028;-82
2021/06/20 06:07:50;;;;;;;7.15;1.17;;;24.80;42.60;;;;;;5097887;28;20024;-82
2021/06/20 06:10:17;;;;;;;6.07;1.33;;;25.00;42.60;;;;;;5095986;28;20032;-82
2021/06/20 06:12:42;;;;;;;6.05;1.48;;;25.10;42.00;;;;;;5096625;28;20073;-83
2021/06/20 06:15:09;;;;;;;8.13;1.67;;;25.00;42.40;;;;;;5096186;28;20131;-82
2021/06/20 06:17:35;;;;;;;6.05;1.17;;;24.90;42.00;;;;;;5096328;28;20016;-85
2021/06/20 06:20:00;;;;;;;3.90;0.88;;;24.90;42.00;;;;;;5095382;28;20038;-82
2021/06/20 06:22:26;;;;;;;6.35;1.25;;;25.10;42.20;;;;;;5096374;28;20024;-82
2021/06/20 06:24:53;;;;;;;5.40;1.10;;;25.10;42.20;;;;;;5095764;28;20495;-82
2021/06/20 06:27:19;;;;;;;4.25;1.35;;;25.20;41.80;;;;;;5098146;28;20045;-83
2021/06/20 06:29:45;;;;;;;3.75;1.13;;;25.20;41.30;;;;;;5097163;28;20046;-83
2021/06/20 06:32:11;;;;;;;8.23;1.70;;;25.30;41.10;;;;;;5095495;28;20016;-82
2021/06/20 06:34:37;;;;;;;4.97;1.35;;;25.10;41.70;;;;;;5095168;28;20055;-82
2021/06/20 06:37:04;;;;;;;4.13;0.80;;;25.10;42.00;;;;;;5096245;28;20030;-82
2021/06/20 06:39:31;;;;;;;2.10;1.00;;;25.10;42.30;;;;;;5096575;28;20022;-81
2021/06/20 06:41:58;;;;;;;4.85;1.17;;;25.10;42.40;;;;;;5096017;28;20077;-82
2021/06/20 06:44:24;;;;;;;2.80;1.08;;;25.20;42.90;;;;;;5094904;28;20028;-84
2021/06/20 06:46:50;;;;;;;3.83;1.00;;;25.20;42.60;;;;;;5096600;28;20206;-82
2021/06/20 06:49:16;;;;;;;5.18;1.48;;;25.20;42.80;;;;;;5097304;28;20154;-81
2021/06/20 06:51:41;;;;;;;7.10;1.40;;;25.20;43.00;;;;;;5094991;28;20349;-81
2021/06/20 06:54:07;;;;;;;6.32;1.60;;;25.20;43.20;;;;;;5097203;28;20028;-82
2021/06/20 06:56:34;;;;;;;4.57;1.20;;;25.30;43.10;;;;;;5096557;28;20020;-82
2021/06/20 06:59:00;;;;;;;4.28;1.42;;;25.40;43.00;;;;;;5094957;28;20109;-83
2021/06/20 07:01:25;;;;;;;4.88;1.15;;;25.40;43.90;;;;;;5094184;28;20359;-82
2021/06/20 07:03:54;;;;;;;5.57;1.50;;;25.40;43.10;;;;;;5093856;28;20028;-83
2021/06/20 07:06:20;;;;;;;6.13;1.08;;;25.40;43.30;;;;;;5093802;28;20043;-81
2021/06/20 07:08:46;;;;;;;6.95;1.50;;;25.50;43.40;;;;;;5094874;28;20063;-81
2021/06/20 07:11:12;;;;;;;5.65;1.90;;;25.50;43.80;;;;;;5094899;28;20028;-81
2021/06/20 07:13:39;;;;;;;3.80;1.13;;;25.40;44.40;;;;;;5093942;28;20023;-82
2021/06/20 07:16:05;;;;;;;6.93;1.15;;;25.30;44.80;;;;;;5094559;28;20032;-82
2021/06/20 07:18:31;;;;;;;3.65;1.10;;;25.30;44.90;;;;;;5094933;28;20036;-83
2021/06/20 07:20:57;;;;;;;4.45;1.17;;;25.40;44.90;;;;;;5093196;28;20069;-82
2021/06/20 07:23:22;;;;;;;8.25;1.42;;;25.40;45.10;;;;;;5094913;28;20464;-83
2021/06/20 07:25:48;;;;;;;4.47;1.48;;;25.50;45.30;;;;;;5094786;28;20065;-81
2021/06/20 07:28:13;;;;;;;4.57;1.50;;;25.60;45.60;;;;;;5093850;28;20069;-81
2021/06/20 07:30:39;;;;;;;5.13;1.45;;;25.60;45.80;;;;;;5094623;28;20039;-82
2021/06/20 07:33:05;;;;;;;7.35;1.55;;;25.60;45.60;;;;;;5094190;28;20027;-82
2021/06/20 07:35:31;;;;;;;3.70;1.20;;;25.60;45.60;;;;;;5094445;28;20120;-82
2021/06/20 07:37:56;;;;;;;4.60;1.38;;;25.50;46.00;;;;;;5093060;28;20032;-84
2021/06/20 07:40:22;;;;;;;4.53;1.50;;;25.50;46.50;;;;;;5093021;28;20035;-82
2021/06/20 07:42:47;;;;;;;15.13;1.88;;;25.50;46.70;;;;;;5093028;28;20381;-81
2021/06/20 07:45:14;;;;;;;6.32;1.73;;;25.50;46.80;;;;;;5094384;28;20487;-80
2021/06/20 07:47:41;;;;;;;4.30;1.27;;;25.50;47.10;;;;;;5094628;28;20076;-80
2021/06/20 07:50:09;;;;;;;6.50;1.60;;;25.50;47.40;;;;;;5094568;28;20047;-80
2021/06/20 07:52:35;;;;;;;3.53;1.40;;;25.40;47.80;;;;;;5095551;28;20093;-81
2021/06/20 07:55:03;;;;;;;5.80;1.52;;;25.40;47.30;;;;;;5095601;28;20476;-80
2021/06/20 07:57:29;;;;;;;4.00;1.40;;;25.40;47.80;;;;;;5117224;28;20080;-80
2021/06/20 07:59:54;;;;;;;7.45;1.77;;;25.40;47.90;;;;;;5113524;28;20031;-80
2021/06/20 08:02:20;;;;;;;6.50;1.40;;;25.50;48.10;;;;;;5094661;28;20027;-81
2021/06/20 08:04:46;;;;;;;8.30;1.85;;;25.60;48.80;;;;;;5093236;28;20023;-79
2021/06/20 08:07:12;;;;;;;8.48;1.80;;;25.60;49.10;;;;;;5094100;28;20373;-80
2021/06/20 08:09:38;;;;;;;5.18;1.83;;;25.70;50.20;;;;;;5093561;28;20036;-80
2021/06/20 08:12:05;;;;;;;8.32;1.55;;;25.80;49.60;;;;;;5093611;28;20552;-79
2021/06/20 08:14:31;;;;;;;8.20;1.75;;;25.80;49.30;;;;;;5093817;28;20036;-78
2021/06/20 08:16:56;;;;;;;5.28;1.60;;;25.90;49.00;;;;;;5093960;28;20103;-78
2021/06/20 08:19:22;;;;;;;3.55;1.10;;;26.10;48.90;;;;;;5093854;28;20450;-79
2021/06/20 08:21:48;;;;;;;5.43;1.40;;;26.20;48.50;;;;;;5097974;28;20110;-77
2021/06/20 08:24:13;;;;;;;5.63;1.30;;;26.30;48.20;;;;;;5095009;28;20032;-80
2021/06/20 08:26:40;;;;;;;7.90;2.03;;;26.40;47.60;;;;;;5094186;28;20431;-79
2021/06/20 08:29:06;;;;;;;4.70;1.45;;;26.50;46.20;;;;;;5093478;28;20024;-80
2021/06/20 08:31:32;;;;;;;6.50;1.30;;;26.50;46.00;;;;;;5093497;28;20097;-81
2021/06/20 08:33:59;;;;;;;4.22;1.45;;;26.60;45.60;;;;;;5093265;28;20491;-78
2021/06/20 08:36:24;;;;;;;13.52;1.73;;;26.60;45.30;;;;;;5093324;28;20028;-79
2021/06/20 08:38:50;;;;;;;8.18;1.42;;;26.60;45.00;;;;;;5093166;28;20024;-81
2021/06/20 08:41:16;;;;;;;5.40;1.70;;;26.60;44.20;;;;;;5093345;28;20143;-80
2021/06/20 08:43:43;;;;;;;6.25;1.50;;;26.70;44.00;;;;;;5093203;28;20024;-80
2021/06/20 08:46:10;;;;;;;7.70;1.55;;;26.70;43.70;;;;;;5094139;28;20035;-81
2021/06/20 08:48:37;;;;;;;6.43;1.50;;;26.90;43.40;;;;;;5093258;28;20123;-80
2021/06/20 08:51:04;;;;;;;6.47;2.15;;;26.90;42.90;;;;;;5093099;28;20496;-79
2021/06/20 08:53:30;;;;;;;6.43;1.38;;;27.00;43.20;;;;;;5093037;28;20023;-79
2021/06/20 08:55:57;;;;;;;5.90;1.70;;;27.10;43.20;;;;;;5093163;28;20016;-80
2021/06/20 08:58:26;;;;;;;5.30;1.40;;;27.10;43.10;;;;;;5091778;28;20497;-79
2021/06/20 09:00:54;;;;;;;8.23;1.80;;;27.10;43.00;;;;;;5092797;28;20100;-79
2021/06/20 09:03:19;;;;;;;6.97;2.05;;;27.10;43.40;;;;;;5091856;28;20028;-79
2021/06/20 09:06:12;;;;;;;9.63;1.92;;;27.20;43.50;;;;;;5092915;28;20130;-80
2021/06/20 09:08:37;;;;;;;7.15;1.80;;;27.20;43.90;;;;;;5091314;28;20028;-80
2021/06/20 09:11:03;;;;;;;7.30;2.20;;;27.20;44.20;;;;;;5093076;28;20477;-80
2021/06/20 09:13:35;;;;;;;9.25;2.40;;;27.40;44.10;;;;;;5093018;28;20499;-80
2021/06/20 09:16:04;;;;;;;8.40;2.30;;;27.50;44.10;;;;;;5093045;28;20031;-80
2021/06/20 09:18:30;;;;;;;6.43;2.28;;;27.50;43.90;;;;;;5089197;28;20395;-79
2021/06/20 09:20:56;;;;;;;7.20;1.95;;;27.50;44.10;;;;;;5082359;28;20023;-80
2021/06/20 09:23:21;;;;;;;7.38;2.28;;;27.60;44.00;;;;;;5080261;28;20024;-80
2021/06/20 09:25:57;;;;;;;8.13;2.15;;;27.80;43.80;;;;;;5077881;28;20021;-81
2021/06/20 09:28:30;;;;;;;6.65;2.05;;;28.00;43.90;;;;;;5072823;28;20020;-81
2021/06/20 09:30:57;;;;;;;7.85;2.25;;;28.10;43.10;;;;;;5072722;28;20497;-79
2021/06/20 09:33:28;;;;;;;11.88;2.03;;;28.20;41.90;;;;;;5072865;28;20027;-78
2021/06/20 09:35:58;;;;;;;10.32;2.13;;;28.30;41.80;;;;;;5074253;28;20107;-79
2021/06/20 09:38:29;;;;;;;8.07;2.30;;;28.30;42.20;;;;;;5076638;28;20027;-79
2021/06/20 09:41:14;;;;;;;10.77;2.85;;;28.30;42.50;;;;;;5076491;28;20029;-80
2021/06/20 09:43:54;;;;;;;12.30;3.08;;;28.20;42.30;;;;;;5076801;28;20488;-80
2021/06/20 09:46:20;;;;;;;9.68;2.22;;;28.00;41.10;;;;;;5078700;28;20416;-79
2021/06/20 09:48:46;;;;;;;11.70;2.50;;;28.00;42.40;;;;;;5076954;28;20051;-79
2021/06/20 09:51:17;;;;;;;18.17;3.30;;;28.00;42.40;;;;;;5077312;28;20105;-78
2021/06/20 09:53:44;;;;;;;22.13;3.67;;;28.00;41.90;;;;;;5076584;28;20024;-79
2021/06/20 09:56:32;;;;;;;16.00;3.38;;;28.00;41.10;;;;;;5076688;28;20016;-77
2021/06/20 09:59:00;;;;;;;20.23;4.13;;;28.00;40.10;;;;;;5076264;28;20032;-77
2021/06/20 10:01:28;;;;;;;20.73;3.38;;;28.00;39.60;;;;;;5076024;28;20035;-78
2021/06/20 10:03:54;;;;;;;16.35;3.28;;;28.00;40.20;;;;;;5076153;28;20032;-78
2021/06/20 10:06:20;;;;;;;16.30;3.55;;;28.10;40.40;;;;;;5074919;28;20023;-79
2021/06/20 10:08:46;;;;;;;18.75;4.03;;;28.30;40.20;;;;;;5075893;28;20029;-78
2021/06/20 10:11:12;;;;;;;23.50;4.22;;;28.50;39.50;;;;;;5076129;28;20055;-79
2021/06/20 10:13:38;;;;;;;19.08;3.88;;;28.70;38.90;;;;;;5075917;28;20432;-79
2021/06/20 10:16:32;;;;;;;15.98;3.53;;;28.80;38.20;;;;;;5075691;28;20055;-79
2021/06/20 10:19:26;;;;;;;21.65;4.35;;;29.00;38.20;;;;;;5073508;28;20028;-79
2021/06/20 10:22:03;;;;;;;20.70;4.25;;;29.20;38.10;;;;;;5073686;28;20029;-79
2021/06/20 10:24:30;;;;;;;18.25;3.80;;;29.30;38.10;;;;;;5075934;28;20377;-79
2021/06/20 10:26:57;;;;;;;28.13;4.80;;;29.30;37.90;;;;;;5075794;28;20020;-79
2021/06/20 10:29:35;;;;;;;16.70;3.70;;;29.30;37.40;;;;;;5075606;28;20064;-79
2021/06/20 10:32:15;;;;;;;18.70;3.90;;;29.40;37.20;;;;;;5075755;28;20017;-79
2021/06/20 10:35:00;;;;;;;17.70;3.40;;;29.50;36.60;;;;;;5075614;28;20021;-79
2021/06/20 10:37:32;;;;;;;20.17;4.10;;;29.70;36.50;;;;;;5075882;28;20074;-79
2021/06/20 10:39:58;;;;;;;23.88;4.68;;;29.90;36.30;;;;;;5075474;28;20107;-79
2021/06/20 10:42:37;;;;;;;16.92;4.20;;;30.10;36.80;;;;;;5075458;28;20488;-79
2021/06/20 10:45:07;;;;;;;21.30;4.35;;;30.20;36.40;;;;;;5075482;28;20225;-79
2021/06/20 10:47:41;;;;;;;24.92;5.07;;;30.20;36.30;;;;;;5073765;28;20079;-80
2021/06/20 10:50:12;;;;;;;18.38;4.35;;;30.10;36.10;;;;;;5075050;28;20036;-79
2021/06/20 10:52:40;;;;;;;21.15;4.32;;;29.80;35.60;;;;;;5075399;28;20020;-78
2021/06/20 10:55:14;;;;;;;23.83;4.32;;;29.80;35.70;;;;;;5075170;28;20021;-79
2021/06/20 10:57:50;;;;;;;18.38;4.60;;;29.70;36.10;;;;;;5075216;28;20473;-79
2021/06/20 11:00:35;;;;;;;18.63;4.15;;;29.90;38.00;;;;;;5073889;28;20120;-79
2021/06/20 11:03:12;;;;;;;26.17;5.53;;;30.00;37.40;;;;;;5075026;28;20436;-79
2021/06/20 11:05:50;;;;;;;29.92;5.40;;;29.90;35.50;;;;;;5075233;28;20021;-78
2021/06/20 11:08:26;;;;;;;23.85;5.90;;;30.00;35.20;;;;;;5080281;28;20032;-78
2021/06/20 11:11:13;;;;;;;35.78;5.97;;;29.60;34.20;;;;;;5075629;28;20035;-78
2021/06/20 11:13:41;;;;;;;23.35;5.28;;;29.80;34.80;;;;;;5064550;28;20037;-80
2021/06/20 11:16:09;;;;;;;23.60;5.25;;;29.80;35.30;;;;;;5075115;28;20036;-79
2021/06/20 11:18:35;;;;;;;23.10;5.30;;;30.00;35.20;;;;;;5074775;28;20138;-79
2021/06/20 11:21:01;;;;;;;26.80;5.10;;;30.20;34.50;;;;;;5074471;28;20035;-80
2021/06/20 11:23:30;;;;;;;32.42;5.28;;;30.50;35.30;;;;;;5073133;28;20033;-78
2021/06/20 11:25:57;;;;;;;24.08;6.53;;;30.80;34.50;;;;;;5074012;28;20491;-80
2021/06/20 11:28:23;;;;;;;24.27;5.50;;;30.90;33.70;;;;;;5074003;28;20025;-79
2021/06/20 11:30:49;;;;;;;26.25;4.97;;;30.90;32.90;;;;;;5074178;28;20039;-80
2021/06/20 11:33:27;;;;;;;21.35;4.60;;;30.70;32.90;;;;;;5074299;28;20107;-79
2021/06/20 11:35:53;;;;;;;24.88;5.13;;;30.70;33.60;;;;;;5074623;28;20044;-80
2021/06/20 11:38:40;;;;;;;29.77;5.10;;;30.90;34.10;;;;;;5074395;28;20392;-82
2021/06/20 11:41:24;;;;;;;27.73;5.20;;;30.90;34.70;;;;;;5074234;28;20477;-82
2021/06/20 11:43:59;;;;;;;16.80;5.45;;;30.90;34.30;;;;;;5074161;28;20515;-81
2021/06/20 11:46:30;;;;;;;31.10;5.85;;;30.80;33.90;;;;;;5074365;28;20032;-81
2021/06/20 11:49:07;;;;;;;30.48;6.22;;;30.90;35.80;;;;;;5074176;28;20024;-81
2021/06/20 11:51:36;;;;;;;30.52;5.93;;;30.70;33.60;;;;;;5074280;28;20037;-80
2021/06/20 11:54:07;;;;;;;36.95;6.38;;;30.20;34.60;;;;;;5074209;28;20065;-80
2021/06/20 11:56:33;;;;;;;33.90;6.32;;;30.00;35.40;;;;;;5074065;28;20028;-80
2021/06/20 11:58:58;;;;;;;29.77;6.15;;;30.10;36.30;;;;;;5073746;28;20385;-80
2021/06/20 12:01:40;;;;;;;23.38;5.00;;;30.20;36.00;;;;;;5073794;28;20071;-79
2021/06/20 12:04:06;;;;;;;23.75;6.03;;;30.20;35.60;;;;;;5073831;28;20043;-83
2021/06/20 12:06:32;;;;;;;24.60;6.22;;;30.40;35.90;;;;;;5074068;28;20385;-81
2021/06/20 12:08:58;;;;;;;26.17;6.38;;;30.40;35.00;;;;;;5073811;28;20037;-81
2021/06/20 12:11:30;;;;;;;30.08;6.13;;;30.30;35.40;;;;;;5073803;28;20132;-81
2021/06/20 12:13:56;;;;;;;29.02;6.90;;;30.20;35.80;;;;;;5073678;28;20024;-79
2021/06/20 12:16:21;;;;;;;25.30;5.53;;;30.40;35.00;;;;;;5073937;28;20544;-79
2021/06/20 12:18:47;;;;;;;23.40;5.82;;;30.50;35.00;;;;;;5073719;28;20473;-79
2021/06/20 12:21:25;;;;;;;24.90;5.97;;;30.80;35.30;;;;;;5073582;28;20029;-78
2021/06/20 12:23:56;;;;;;;28.27;6.40;;;31.00;34.90;;;;;;5073666;28;20020;-79
2021/06/20 12:26:27;;;;;;;29.25;6.20;;;31.00;34.10;;;;;;5073666;28;20031;-78
2021/06/20 12:28:53;;;;;;;21.60;5.60;;;31.10;34.60;;;;;;5073345;28;20029;-78
2021/06/20 12:31:19;;;;;;;35.75;6.85;;;31.20;35.00;;;;;;5073595;28;20032;-79
2021/06/20 12:33:44;;;;;;;28.35;5.47;;;31.10;34.10;;;;;;5072222;28;20020;-79
2021/06/20 12:36:11;;;;;;;30.25;5.93;;;31.10;33.70;;;;;;5073529;28;20082;-79
2021/06/20 12:38:38;;;;;;;23.55;6.30;;;31.20;34.00;;;;;;5073486;28;20020;-79
2021/06/20 12:41:15;;;;;;;33.10;6.40;;;31.40;35.40;;;;;;5073197;28;20108;-79
2021/06/20 12:43:41;;;;;;;32.63;6.07;;;31.20;34.40;;;;;;5073382;28;20078;-80